EST,Max TemperatureF,Mean TemperatureF,Min TemperatureF,Max Dew PointF,MeanDew PointF,Min DewpointF,Max Humidity, Mean Humidity, Min Humidity, Max Sea Level PressureIn, Mean Sea Level PressureIn, Min Sea Level PressureIn, Max VisibilityMiles, Mean VisibilityMiles, Min VisibilityMiles, Max Wind SpeedMPH, Mean Wind SpeedMPH, Max Gust SpeedMPH,PrecipitationIn, CloudCover, Events, WindDirDegrees
2011-11-1,59,52,44,50,46,43,100,87,55,30.30,30.25,30.19,10,8,0,8,2,,0.00,5,Fog-Rain,338
2011-11-2,60,46,32,46,38,32,100,76,42,30.44,30.37,30.31,10,9,5,5,0,,0.00,0,,95
2011-11-3,64,50,37,46,43,37,100,79,45,30.28,30.14,29.95,10,10,10,10,4,,0.00,0,,181
2011-11-4,57,50,42,54,47,41,100,91,62,29.98,29.92,29.87,10,9,4,20,4,26,0.00,6,Rain,8
2011-11-5,53,45,37,37,33,30,93,62,44,30.44,30.35,30.19,10,10,10,13,8,22,0.00,0,,15
2011-11-6,60,46,32,45,41,32,100,82,55,30.54,30.47,30.40,10,10,10,9,1,,0.00,4,,84
2011-11-7,68,50,33,52,42,34,100,85,42,30.41,30.36,30.30,10,8,0,7,1,,0.00,1,Fog,253
2011-11-8,68,50,33,52,41,34,100,81,40,30.31,30.26,30.21,10,8,0,8,1,,0.00,1,Fog,98
2011-11-9,64,48,33,55,46,34,100,95,68,30.21,30.13,30.00,10,5,0,5,1,,0.00,4,Fog,100
2011-11-10,60,51,42,59,48,41,100,94,72,29.97,29.86,29.79,10,6,0,12,2,20,0.00,7,Fog-Rain,326
2011-11-11,51,40,30,34,30,27,100,68,40,30.16,29.99,29.83,10,10,10,17,6,28,0.00,1,,263
2011-11-12,64,47,30,36,32,28,100,62,32,30.22,30.17,30.13,10,10,10,13,4,20,0.00,0,,193
2011-11-13,64,54,44,36,33,32,66,46,30,30.20,30.14,30.05,10,10,10,17,8,26,0.00,0,,183
2011-11-14,75,65,55,55,52,43,88,64,47,30.07,29.98,29.88,10,10,10,14,7,23,0.00,0,,193
2011-11-15,73,64,55,59,56,54,94,76,61,29.98,29.93,29.88,10,10,10,10,6,20,0.00,3,,214
2011-11-16,68,60,53,68,61,54,100,98,88,29.93,29.82,29.71,10,7,2,12,2,20,0.00,6,Rain,208
2011-11-17,53,44,33,54,44,32,100,95,66,30.14,29.94,29.85,10,9,3,15,5,23,0.00,7,Rain,314
2011-11-18,46,38,30,32,26,19,100,70,34,30.51,30.43,30.26,10,10,10,8,2,,0.00,0,,265
2011-11-19,55,44,32,45,34,27,93,72,43,30.49,30.41,30.32,10,10,10,14,4,18,0.00,0,,176
2011-11-20,69,58,46,57,51,43,100,78,60,30.31,30.24,30.16,10,10,10,15,4,22,0.00,0,,192
2011-11-21,66,62,57,59,58,55,100,89,73,30.25,30.18,30.12,10,10,7,8,3,,0.00,6,,77
2011-11-22,62,58,53,63,57,54,100,100,100,30.25,30.15,29.96,10,6,1,8,3,,0.00,6,Rain,124
2011-11-23,69,60,48,64,53,36,100,79,51,30.01,29.76,29.62,10,10,2,16,10,32,0.00,5,Rain,251
2011-11-24,60,48,37,37,34,32,100,62,36,30.31,30.24,30.09,10,10,10,9,5,16,0.00,0,,308
2011-11-25,68,50,32,43,37,32,100,67,32,30.31,30.26,30.20,10,10,10,6,3,,0.00,0,,195
2011-11-26,68,50,33,46,39,34,100,65,37,30.29,30.24,30.21,10,10,10,9,4,,0.00,0,,204
2011-11-27,71,60,50,54,50,46,88,69,49,30.20,30.15,30.10,10,10,10,17,6,26,0.00,0,,170
2011-11-28,71,65,59,61,55,52,100,71,50,30.12,30.07,29.99,10,10,10,10,6,17,0.00,5,,129
2011-11-29,66,56,46,63,55,46,100,98,88,29.96,29.81,29.74,10,9,2,16,6,25,0.00,6,Rain,144
2011-11-30,51,44,37,43,36,32,100,74,50,30.05,29.85,29.73,10,10,10,15,7,21,0.00,2,,231